createdAt,value
2022-12-03T00:01:34.225Z,-18.19
2022-12-03T00:04:38.284Z,-18.21
2022-12-03T00:07:41.933Z,-18.23
2022-12-03T00:10:45.971Z,-18.33
2022-12-03T00:13:49.251Z,-18.33
2022-12-03T00:16:53.236Z,-18.45
2022-12-03T00:19:56.623Z,-18.34
2022-12-03T00:22:59.603Z,-18.21
2022-12-03T00:26:03.654Z,-18.10
2022-12-03T00:29:06.614Z,-18.12
2022-12-03T00:32:09.954Z,-18.07
2022-12-03T00:35:12.828Z,-18.27
2022-12-03T00:38:16.432Z,-18.11
2022-12-03T00:41:19.434Z,-18.05
2022-12-03T00:44:23.470Z,-17.93
2022-12-03T00:47:27.247Z,-17.77
2022-12-03T00:50:31.277Z,-17.69
2022-12-03T00:53:34.287Z,-17.49
2022-12-03T00:56:37.278Z,-17.32
2022-12-03T00:59:41.039Z,-17.28
2022-12-03T01:02:44.957Z,-17.35
2022-12-03T01:05:49.164Z,-17.33
2022-12-03T01:08:52.539Z,-17.49
2022-12-03T01:11:56.358Z,-17.45
2022-12-03T01:14:59.966Z,-17.17
2022-12-03T01:18:04.070Z,-17.38
2022-12-03T01:21:07.755Z,-17.28
2022-12-03T01:24:12.475Z,-17.18
2022-12-03T01:27:16.261Z,-17.31
2022-12-03T01:30:20.467Z,-17.35
2022-12-03T01:33:24.151Z,-17.09
2022-12-03T01:36:28.011Z,-16.25
2022-12-03T01:39:31.579Z,-15.26
2022-12-03T01:42:40.692Z,-14.23
2022-12-03T01:45:44.468Z,-14.26
2022-12-03T01:48:50.224Z,-14.73
2022-12-03T01:51:55.433Z,-14.64
2022-12-03T01:55:02.175Z,-14.85
2022-12-03T01:58:05.615Z,-14.65
2022-12-03T02:01:14.984Z,-13.81
2022-12-03T02:04:23.188Z,-13.06
2022-12-03T02:07:32.566Z,-13.44
2022-12-03T02:10:38.325Z,-13.23
2022-12-03T02:13:43.465Z,-13.62
2022-12-03T02:16:47.762Z,-14.37
2022-12-03T02:19:51.363Z,-14.43
2022-12-03T02:23:07.302Z,-14.53
2022-12-03T02:26:11.592Z,-14.39
2022-12-03T02:29:14.971Z,-14.60
2022-12-03T02:32:20.295Z,-14.82
2022-12-03T02:35:27.256Z,-14.87
2022-12-03T02:38:33.283Z,-14.76
2022-12-03T02:41:55.209Z,-15.18
2022-12-03T02:45:05.442Z,-15.10
2022-12-03T02:48:18.589Z,-14.92
2022-12-03T02:51:22.641Z,-15.18
2022-12-03T02:54:26.611Z,-15.13
2022-12-03T02:57:31.266Z,-15.11
2022-12-03T03:00:36.056Z,-15.04
2022-12-03T03:03:40.901Z,-14.74
2022-12-03T03:06:44.804Z,-14.76
2022-12-03T03:09:48.839Z,-14.91
2022-12-03T03:12:54.613Z,-14.79
2022-12-03T03:15:59.081Z,-14.69
2022-12-03T03:19:03.151Z,-14.56
2022-12-03T03:22:07.124Z,-14.58
2022-12-03T03:25:14.142Z,-14.42
2022-12-03T03:28:18.733Z,-14.65
2022-12-03T03:31:24.494Z,-14.67
2022-12-03T03:34:29.692Z,-14.74
2022-12-03T03:37:33.877Z,-14.26
2022-12-03T03:40:38.170Z,-14.29
2022-12-03T03:43:43.885Z,-14.48
2022-12-03T03:46:49.372Z,-14.12
2022-12-03T03:49:53.975Z,-13.91
2022-12-03T03:52:59.431Z,-13.82
2022-12-03T03:56:02.963Z,-13.78
2022-12-03T03:59:06.883Z,-13.64
2022-12-03T04:02:25.702Z,-13.79
2022-12-03T04:05:29.656Z,-14.04
2022-12-03T04:08:33.922Z,-13.94
2022-12-03T04:11:55.969Z,-13.84
2022-12-03T04:14:59.799Z,-14.01
2022-12-03T04:18:22.009Z,-13.98
2022-12-03T04:21:44.540Z,-13.91
2022-12-03T04:24:48.214Z,-13.88
2022-12-03T04:28:10.585Z,-13.73
2022-12-03T04:31:32.938Z,-13.45
2022-12-03T04:48:40.342Z,-12.95
2022-12-03T04:51:44.111Z,-12.92
2022-12-03T04:54:48.461Z,-12.81
2022-12-03T04:57:52.552Z,-12.89
2022-12-03T05:00:56.379Z,-13.10
2022-12-03T05:04:00.129Z,-13.08
2022-12-03T05:07:04.284Z,-12.82
2022-12-03T05:10:09.643Z,-12.78
2022-12-03T05:13:13.325Z,-12.72
2022-12-03T05:16:17.824Z,-12.90
2022-12-03T05:19:21.505Z,-13.00
2022-12-03T05:22:24.522Z,-12.88
2022-12-03T05:25:27.454Z,-12.91
2022-12-03T05:28:30.855Z,-12.52
2022-12-03T05:31:33.956Z,-12.27
2022-12-03T05:34:37.219Z,-12.15
2022-12-03T05:37:40.239Z,-12.33
2022-12-03T05:40:44.209Z,-12.33
2022-12-03T05:43:47.798Z,-12.20
2022-12-03T05:46:51.016Z,-12.17
2022-12-03T05:49:53.925Z,-11.73
2022-12-03T05:52:59.015Z,-11.53
2022-12-03T05:56:02.379Z,-11.69
2022-12-03T05:59:06.397Z,-11.95
2022-12-03T06:02:09.930Z,-11.66
2022-12-03T06:05:15.450Z,-10.93
2022-12-03T06:08:18.654Z,-10.57
2022-12-03T06:11:22.066Z,-10.53
2022-12-03T06:14:26.336Z,-9.19
2022-12-03T06:17:30.200Z,-8.86
2022-12-03T06:20:33.888Z,-10.01
2022-12-03T06:23:38.285Z,-10.31
2022-12-03T06:26:41.648Z,-9.58
2022-12-03T06:29:45.742Z,-7.62
2022-12-03T06:32:49.324Z,-6.97
2022-12-03T06:35:53.319Z,-6.62
2022-12-03T06:38:56.421Z,-8.46
2022-12-03T06:41:59.442Z,-9.41
2022-12-03T06:45:02.824Z,-10.26
2022-12-03T06:48:06.760Z,-9.91
2022-12-03T06:51:09.833Z,-7.28
2022-12-03T06:54:13.880Z,-6.24
2022-12-03T06:57:17.726Z,-6.89
2022-12-03T07:00:21.989Z,-8.95
2022-12-03T07:03:25.048Z,-9.40
2022-12-03T07:06:29.017Z,-8.56
2022-12-03T07:09:31.992Z,-9.49
2022-12-03T07:12:35.902Z,-10.82
2022-12-03T07:15:39.436Z,-10.67
2022-12-03T07:18:42.707Z,-10.69
2022-12-03T07:21:46.502Z,-9.34
2022-12-03T07:24:49.563Z,-8.79
2022-12-03T07:27:53.360Z,-9.23
2022-12-03T07:30:57.167Z,-9.19
2022-12-03T07:34:00.656Z,-10.47
2022-12-03T07:37:03.764Z,-11.06
2022-12-03T07:40:08.229Z,-11.44
2022-12-03T07:43:12.003Z,-11.77
2022-12-03T07:46:16.093Z,-11.87
2022-12-03T07:49:19.846Z,-11.69
2022-12-03T07:52:23.256Z,-12.03
2022-12-03T07:55:26.646Z,-12.20
2022-12-03T07:58:30.029Z,-12.72
2022-12-03T08:05:03.633Z,-13.20
2022-12-03T08:08:06.923Z,-13.26
2022-12-03T08:11:17.675Z,-13.26
2022-12-03T08:14:21.542Z,-13.33
2022-12-03T08:17:25.347Z,-13.30
2022-12-03T08:20:32.437Z,-13.45
2022-12-03T08:23:37.678Z,-13.48
2022-12-03T08:26:42.556Z,-13.62
2022-12-03T08:29:47.395Z,-13.68
2022-12-03T08:32:52.152Z,-13.51
2022-12-03T08:35:56.687Z,-13.61
2022-12-03T08:39:03.127Z,-13.66
2022-12-03T08:42:36.921Z,-13.74
2022-12-03T08:45:43.027Z,-13.90
2022-12-03T08:48:49.459Z,-13.75
2022-12-03T08:52:02.262Z,-13.84
2022-12-03T08:55:36.405Z,-13.90
2022-12-03T08:58:45.209Z,-13.93
2022-12-03T09:01:50.124Z,-13.96
2022-12-03T09:04:55.463Z,-14.01
2022-12-03T09:07:58.785Z,-14.12
2022-12-03T09:11:01.965Z,-14.04
2022-12-03T09:14:07.076Z,-14.03
2022-12-03T09:17:10.251Z,-14.07
2022-12-03T09:20:14.334Z,-14.04
2022-12-03T09:23:17.757Z,-14.05
2022-12-03T09:26:21.832Z,-14.23
2022-12-03T09:29:26.308Z,-14.19
2022-12-03T09:32:30.294Z,-14.14
2022-12-03T09:35:33.347Z,-14.15
2022-12-03T09:38:37.059Z,-14.24
2022-12-03T09:41:41.186Z,-14.33
2022-12-03T09:44:45.329Z,-14.35
2022-12-03T09:47:50.663Z,-14.26
2022-12-03T09:50:54.606Z,-14.33
2022-12-03T09:54:01.654Z,-14.41
2022-12-03T09:57:05.284Z,-14.26
2022-12-03T10:00:19.718Z,-14.28
2022-12-03T10:03:30.049Z,-14.26
2022-12-03T10:06:33.540Z,-14.31
2022-12-03T10:09:37.559Z,-14.32
2022-12-03T10:12:40.750Z,-14.35
2022-12-03T10:15:44.133Z,-14.42
2022-12-03T10:18:56.939Z,-14.40
2022-12-03T10:22:00.469Z,-14.35
2022-12-03T10:25:10.683Z,-14.32
2022-12-03T10:28:27.146Z,-14.39
2022-12-03T10:31:37.269Z,-14.47
2022-12-03T10:34:42.358Z,-14.55
2022-12-03T10:38:18.245Z,-14.55
2022-12-03T10:41:25.057Z,-14.46
2022-12-03T10:44:31.033Z,-14.26
2022-12-03T10:47:34.883Z,-14.33
2022-12-03T10:50:38.465Z,-14.25
2022-12-03T10:53:43.270Z,-14.22
2022-12-03T10:56:48.202Z,-14.27
2022-12-03T10:59:52.190Z,-14.30
2022-12-03T11:02:57.224Z,-14.33
2022-12-03T11:06:02.551Z,-14.20
2022-12-03T11:09:14.683Z,-14.25
2022-12-03T11:12:27.061Z,-14.22
2022-12-03T11:15:44.827Z,-14.29
2022-12-03T11:18:52.031Z,-14.34
2022-12-03T11:22:06.937Z,-14.39
2022-12-03T11:25:26.290Z,-14.18
2022-12-03T11:28:34.898Z,-14.09
2022-12-03T11:31:45.645Z,-14.20
2022-12-03T11:34:49.203Z,-14.24
2022-12-03T11:37:52.728Z,-14.32
2022-12-03T11:41:19.644Z,-14.21
2022-12-03T11:44:33.034Z,-14.20
2022-12-03T11:47:44.318Z,-14.27
2022-12-03T11:50:54.692Z,-14.29
2022-12-03T11:54:00.600Z,-14.27
2022-12-03T11:57:04.053Z,-14.27
2022-12-03T12:00:20.892Z,-14.34
2022-12-03T12:03:33.328Z,-14.39
2022-12-03T12:06:51.648Z,-14.47
2022-12-03T12:09:57.846Z,-14.51
2022-12-03T12:13:01.289Z,-14.31
2022-12-03T12:16:08.458Z,-14.45
2022-12-03T12:19:39.523Z,-14.56
2022-12-03T12:22:43.293Z,-14.49
2022-12-03T12:25:53.804Z,-14.61
2022-12-03T12:29:13.609Z,-14.82
2022-12-03T12:32:19.172Z,-14.77
2022-12-03T12:35:28.590Z,-14.73
2022-12-03T12:38:33.453Z,-14.88
2022-12-03T12:41:37.446Z,-14.87
2022-12-03T12:44:40.390Z,-14.98
2022-12-03T12:47:58.417Z,-14.99
2022-12-03T12:51:20.207Z,-15.14
2022-12-03T12:54:24.441Z,-15.22
2022-12-03T12:57:28.072Z,-15.21
2022-12-03T13:00:31.222Z,-15.28
2022-12-03T13:03:37.612Z,-15.25
2022-12-03T13:06:41.796Z,-15.26
2022-12-03T13:09:45.505Z,-15.27
2022-12-03T13:12:49.120Z,-15.28
2022-12-03T13:16:12.461Z,-15.30
2022-12-03T13:19:46.716Z,-15.20
2022-12-03T13:22:51.386Z,-15.20
2022-12-03T13:26:06.319Z,-15.19
2022-12-03T13:29:19.272Z,-15.12
2022-12-03T13:32:35.100Z,-15.18
2022-12-03T13:35:40.363Z,-15.30
2022-12-03T13:38:46.122Z,-15.18
2022-12-03T13:42:08.500Z,-15.05
2022-12-03T13:45:18.047Z,-15.05
2022-12-03T13:48:30.020Z,-14.97
2022-12-03T13:51:34.259Z,-15.06
2022-12-03T13:54:39.837Z,-15.17
2022-12-03T13:57:43.819Z,-15.32
2022-12-03T14:00:47.727Z,-15.33
2022-12-03T14:03:51.712Z,-15.30
2022-12-03T14:06:55.319Z,-15.35
2022-12-03T14:09:59.114Z,-15.24
2022-12-03T14:13:02.793Z,-15.17
2022-12-03T14:16:07.040Z,-15.25
2022-12-03T14:19:10.408Z,-15.07
2022-12-03T14:22:14.378Z,-15.02
2022-12-03T14:25:18.142Z,-14.95
2022-12-03T14:28:22.915Z,-15.04
2022-12-03T14:31:28.450Z,-14.88
2022-12-03T14:34:32.179Z,-14.79
2022-12-03T14:37:35.866Z,-14.72
2022-12-03T14:40:39.376Z,-14.98
2022-12-03T14:43:43.162Z,-15.07
2022-12-03T14:46:47.500Z,-15.07
2022-12-03T14:49:52.924Z,-14.95
2022-12-03T14:52:57.259Z,-14.78
2022-12-03T14:56:00.692Z,-14.87
2022-12-03T14:59:04.342Z,-14.82
2022-12-03T15:02:09.439Z,-14.88
2022-12-03T15:05:13.190Z,-14.90
2022-12-03T15:08:17.179Z,-14.90
2022-12-03T15:11:20.628Z,-14.68
2022-12-03T15:14:25.410Z,-14.70
2022-12-03T15:17:32.003Z,-14.72
2022-12-03T15:20:36.169Z,-14.66
2022-12-03T15:23:40.518Z,-14.55
2022-12-03T15:26:44.177Z,-14.52
2022-12-03T15:29:48.358Z,-14.68
2022-12-03T15:32:52.203Z,-14.67
2022-12-03T15:35:55.935Z,-14.69
2022-12-03T15:38:59.543Z,-14.66
2022-12-03T15:42:03.692Z,-14.62
2022-12-03T15:45:11.941Z,-14.63
2022-12-03T15:48:18.458Z,-14.65
2022-12-03T15:51:22.256Z,-14.63
2022-12-03T15:54:25.584Z,-14.68
2022-12-03T15:57:30.178Z,-14.67
2022-12-03T16:00:33.600Z,-14.59
2022-12-03T16:03:36.904Z,-14.70
2022-12-03T16:06:40.657Z,-14.61
2022-12-03T16:09:43.947Z,-14.60
2022-12-03T16:12:47.466Z,-14.68
2022-12-03T16:15:51.099Z,-14.82
2022-12-03T16:18:54.973Z,-14.75
2022-12-03T16:21:58.626Z,-14.67
2022-12-03T16:25:04.147Z,-14.70
2022-12-03T16:28:08.037Z,-14.91
2022-12-03T16:31:11.249Z,-15.10
2022-12-03T16:34:15.633Z,-14.92
2022-12-03T16:37:18.812Z,-15.08
2022-12-03T16:40:26.472Z,-15.15
2022-12-03T16:43:36.307Z,-15.22
2022-12-03T16:46:39.714Z,-15.12
2022-12-03T16:49:43.516Z,-15.20
2022-12-03T16:52:48.495Z,-15.29
2022-12-03T16:55:52.344Z,-15.32
2022-12-03T16:58:56.412Z,-15.35
2022-12-03T17:02:00.082Z,-15.27
2022-12-03T17:05:04.451Z,-15.34
2022-12-03T17:08:07.916Z,-15.28
2022-12-03T17:11:11.207Z,-15.02
2022-12-03T17:14:15.421Z,-15.14
2022-12-03T17:17:19.175Z,-15.28
2022-12-03T17:20:22.504Z,-15.09
2022-12-03T17:23:26.281Z,-14.99
2022-12-03T17:26:29.966Z,-14.92
2022-12-03T17:29:33.732Z,-14.76
2022-12-03T17:32:37.227Z,-14.74
2022-12-03T17:35:40.820Z,-14.88
2022-12-03T17:38:44.894Z,-15.04
2022-12-03T17:41:48.595Z,-15.06
2022-12-03T17:44:52.368Z,-15.03
2022-12-03T17:47:55.457Z,-15.05
2022-12-03T17:51:02.389Z,-14.86
2022-12-03T17:54:05.778Z,-14.95
2022-12-03T17:57:09.875Z,-14.89
2022-12-03T18:00:13.781Z,-14.99
2022-12-03T18:03:18.156Z,-14.96
2022-12-03T18:06:21.945Z,-15.02
2022-12-03T18:09:25.937Z,-15.05
2022-12-03T18:12:29.655Z,-15.05
2022-12-03T18:15:33.495Z,-15.03
2022-12-03T18:18:36.783Z,-14.88
2022-12-03T18:21:41.497Z,-15.04
2022-12-03T18:24:47.618Z,-15.21
2022-12-03T18:27:54.266Z,-15.22
2022-12-03T18:31:00.235Z,-15.25
2022-12-03T18:34:04.239Z,-15.18
2022-12-03T18:37:07.237Z,-15.07
2022-12-03T18:40:18.651Z,-15.04
2022-12-03T18:43:21.686Z,-15.14
2022-12-03T18:46:51.971Z,-15.32
2022-12-03T18:49:50.110Z,-15.24
2022-12-03T18:52:53.822Z,-15.14
2022-12-03T18:55:57.549Z,-15.20
2022-12-03T18:59:00.612Z,-15.31
2022-12-03T19:02:04.341Z,-15.24
2022-12-03T19:05:08.041Z,-15.28
2022-12-03T19:08:15.294Z,-15.26
2022-12-03T19:11:18.707Z,-15.38
2022-12-03T19:14:22.705Z,-15.41
2022-12-03T19:17:27.664Z,-15.49
2022-12-03T19:20:31.743Z,-15.44
2022-12-03T19:23:36.181Z,-15.52
2022-12-03T19:26:40.147Z,-15.48
2022-12-03T19:29:43.676Z,-15.47
2022-12-03T19:32:47.341Z,-15.51
2022-12-03T19:35:50.969Z,-15.50
2022-12-03T19:38:59.117Z,-15.50
2022-12-03T19:42:02.498Z,-15.52
2022-12-03T19:45:07.306Z,-15.52
2022-12-03T19:48:11.031Z,-15.51
2022-12-03T19:51:33.535Z,-15.54
2022-12-03T19:54:38.445Z,-15.48
2022-12-03T19:57:41.800Z,-15.55
2022-12-03T20:00:44.823Z,-15.63
2022-12-03T20:03:50.039Z,-15.63
2022-12-03T20:06:54.110Z,-15.77
2022-12-03T20:09:58.184Z,-15.79
2022-12-03T20:13:02.252Z,-15.79
2022-12-03T20:16:13.079Z,-15.65
2022-12-03T20:19:18.417Z,-15.59
2022-12-03T20:22:22.175Z,-15.60
2022-12-03T20:25:26.306Z,-15.61
2022-12-03T20:28:30.163Z,-15.66
2022-12-03T20:31:33.921Z,-15.70
2022-12-03T20:34:36.948Z,-15.71
2022-12-03T20:37:40.533Z,-15.69
2022-12-03T20:40:44.238Z,-15.66
2022-12-03T20:43:48.858Z,-15.55
2022-12-03T20:46:52.356Z,-15.59
2022-12-03T20:49:56.630Z,-15.71
2022-12-03T20:53:23.304Z,-15.71
2022-12-03T20:56:26.897Z,-15.72
2022-12-03T20:59:30.832Z,-15.82
2022-12-03T21:02:34.667Z,-15.78
2022-12-03T21:05:38.043Z,-15.83
2022-12-03T21:08:43.079Z,-15.82
2022-12-03T21:11:47.092Z,-15.79
2022-12-03T21:14:50.451Z,-15.68
2022-12-03T21:17:54.116Z,-15.66
2022-12-03T21:21:00.906Z,-15.74
2022-12-03T21:24:04.761Z,-15.72
2022-12-03T21:27:08.864Z,-15.72
2022-12-03T21:30:12.159Z,-15.85
2022-12-03T21:33:16.344Z,-15.84
2022-12-03T21:36:21.532Z,-15.88
2022-12-03T21:39:25.682Z,-15.86
2022-12-03T21:42:35.980Z,-15.77
2022-12-03T21:45:42.078Z,-15.78
2022-12-03T21:48:45.956Z,-15.75
2022-12-03T21:51:49.759Z,-15.76
2022-12-03T21:54:54.045Z,-15.70
2022-12-03T21:57:57.279Z,-15.69
2022-12-03T22:01:02.027Z,-15.74
2022-12-03T22:04:05.711Z,-15.73
2022-12-03T22:07:09.320Z,-15.79
2022-12-03T22:10:14.007Z,-15.80
2022-12-03T22:13:17.712Z,-15.73
2022-12-03T22:16:22.809Z,-15.81
2022-12-03T22:19:26.851Z,-15.81
2022-12-03T22:22:30.680Z,-15.77
2022-12-03T22:25:33.629Z,-15.72
2022-12-03T22:28:37.658Z,-15.67
2022-12-03T22:31:41.608Z,-15.61
2022-12-03T22:34:45.235Z,-15.60
2022-12-03T22:37:48.876Z,-15.55
2022-12-03T22:40:52.846Z,-15.51
2022-12-03T22:43:56.668Z,-15.45
2022-12-03T22:47:00.662Z,-15.48
2022-12-03T22:50:04.302Z,-15.45
2022-12-03T22:53:08.513Z,-15.43
2022-12-03T22:56:12.506Z,-15.36
2022-12-03T22:59:16.661Z,-15.35
2022-12-03T23:02:19.756Z,-15.30
2022-12-03T23:05:23.197Z,-15.30
2022-12-03T23:08:26.262Z,-15.34
2022-12-03T23:11:29.993Z,-15.31
2022-12-03T23:14:33.335Z,-15.26
2022-12-03T23:17:37.367Z,-15.34
2022-12-03T23:20:47.888Z,-15.27
2022-12-03T23:23:51.854Z,-15.24
2022-12-03T23:26:55.434Z,-15.36
2022-12-03T23:29:59.539Z,-15.49
2022-12-03T23:33:03.655Z,-15.54
2022-12-03T23:36:08.346Z,-15.48
2022-12-03T23:39:12.121Z,-15.46
2022-12-03T23:42:16.467Z,-15.62
2022-12-03T23:45:20.088Z,-15.57
2022-12-03T23:48:23.480Z,-15.55
2022-12-03T23:51:28.140Z,-15.50
2022-12-03T23:54:32.319Z,-15.44
2022-12-03T23:57:35.959Z,-15.41
